Time;durP1;ratioP1;P1;durP2;ratioP2;P2;SDS_P1;SDS_P2;PMS_P1;PMS_P2;Temp;Humidity;BMP_temperature;BMP_pressure;BME280_temperature;BME280_humidity;BME280_pressure;Samples;Min_cycle;Max_cycle;Signal;HPM_P1;HPM_P2
2022/01/30 00:00:27;;;;;;;13.57;2.57;;;;;7.80;101807.00;;;;4993475;28;20223;-72
2022/01/30 00:03:14;;;;;;;12.90;2.77;;;;;7.90;101819.00;;;;4998785;28;20730;-71
2022/01/30 00:06:00;;;;;;;15.17;2.90;;;;;7.90;101823.00;;;;4989957;28;20237;-72
2022/01/30 00:08:47;;;;;;;19.47;3.47;;;;;7.80;101810.00;;;;4986342;28;20596;-72
2022/01/30 00:11:38;;;;;;;14.17;2.33;;;;;7.80;101815.00;;;;4994130;28;20225;-72
2022/01/30 00:14:27;;;;;;;12.03;2.57;;;;;7.60;101836.00;;;;4989997;28;20242;-73
2022/01/30 00:17:19;;;;;;;12.27;3.07;;;;;7.70;101839.00;;;;4989547;28;20237;-70
2022/01/30 00:20:11;;;;;;;15.77;3.13;;;;;7.70;101844.00;;;;4994446;28;20235;-71
2022/01/30 00:23:08;;;;;;;17.10;2.93;;;;;7.70;101835.00;;;;5002242;28;20233;-71
2022/01/30 00:25:57;;;;;;;19.87;2.63;;;;;7.50;101838.00;;;;4998918;28;20691;-71
2022/01/30 00:28:44;;;;;;;12.10;2.97;;;;;7.60;101843.00;;;;4999769;28;20226;-69
2022/01/30 00:31:32;;;;;;;19.67;2.57;;;;;7.40;101829.00;;;;5005248;28;20237;-71
2022/01/30 00:34:38;;;;;;;14.20;2.63;;;;;7.30;101835.00;;;;4993003;28;20238;-75
2022/01/30 00:37:24;;;;;;;12.27;2.53;;;;;7.00;101846.00;;;;5008131;28;20236;-73
2022/01/30 00:40:11;;;;;;;9.87;2.40;;;;;7.00;101844.00;;;;5009290;28;20267;-73
2022/01/30 00:42:58;;;;;;;10.63;2.30;;;;;7.00;101848.00;;;;5003816;28;20258;-72
2022/01/30 00:45:47;;;;;;;14.10;3.27;;;;;7.10;101837.00;;;;5007357;28;20344;-72
2022/01/30 00:48:33;;;;;;;15.87;2.63;;;;;7.00;101832.00;;;;5006426;28;20709;-69
2022/01/30 00:51:19;;;;;;;10.00;2.20;;;;;7.00;101826.00;;;;5008895;28;20288;-72
2022/01/30 00:54:06;;;;;;;14.00;2.67;;;;;6.90;101853.00;;;;5008514;28;20234;-72
2022/01/30 00:56:52;;;;;;;17.10;2.53;;;;;6.70;101849.00;;;;5004996;28;20273;-71
2022/01/30 00:59:38;;;;;;;10.67;2.63;;;;;6.80;101860.00;;;;5008707;28;20257;-69
2022/01/30 01:02:26;;;;;;;10.67;2.43;;;;;6.70;101855.00;;;;5007440;28;20288;-67
2022/01/30 01:05:13;;;;;;;11.97;1.90;;;;;6.60;101851.00;;;;4994752;28;20242;-68
2022/01/30 01:08:07;;;;;;;11.10;2.50;;;;;6.60;101854.00;;;;4993254;28;20250;-70
2022/01/30 01:10:59;;;;;;;8.70;2.23;;;;;6.50;101848.00;;;;5008551;28;23248;-71
2022/01/30 01:14:02;;;;;;;15.50;2.93;;;;;6.70;101837.00;;;;5000057;28;20305;-71
2022/01/30 01:26:02;;;;;;;11.70;2.53;;;;;6.50;101853.00;;;;4987310;28;20238;-70
2022/01/30 01:28:48;;;;;;;11.23;2.00;;;;;6.60;101858.00;;;;5004845;28;20221;-73
2022/01/30 01:31:35;;;;;;;15.53;2.43;;;;;6.50;101843.00;;;;5006825;28;20370;-71
2022/01/30 01:34:32;;;;;;;10.37;2.50;;;;;6.40;101844.00;;;;5003049;28;20337;-70
2022/01/30 01:37:19;;;;;;;16.23;2.80;;;;;6.10;101855.00;;;;5006418;28;20288;-71
2022/01/30 01:40:07;;;;;;;13.70;2.20;;;;;6.30;101859.00;;;;5002195;28;20233;-72
2022/01/30 01:42:55;;;;;;;11.50;2.27;;;;;6.50;101852.00;;;;5001412;28;20688;-72
2022/01/30 01:45:41;;;;;;;11.60;2.93;;;;;6.50;101853.00;;;;5000410;28;20275;-73
2022/01/30 01:48:33;;;;;;;10.50;2.50;;;;;6.20;101860.00;;;;5001944;28;20768;-70
2022/01/30 01:51:22;;;;;;;9.00;1.97;;;;;6.30;101869.00;;;;5004968;28;20277;-69
2022/01/30 01:54:10;;;;;;;9.57;2.40;;;;;6.20;101872.00;;;;5008145;28;20241;-67
2022/01/30 01:56:56;;;;;;;9.83;2.50;;;;;6.20;101880.00;;;;5002114;28;20234;-71
2022/01/30 01:59:43;;;;;;;15.90;2.80;;;;;6.40;101877.00;;;;5005958;28;20229;-71
2022/01/30 02:02:29;;;;;;;15.23;2.50;;;;;6.50;101879.00;;;;4996305;28;20234;-71
2022/01/30 02:05:16;;;;;;;13.07;2.67;;;;;6.60;101897.00;;;;4996836;28;20242;-69
2022/01/30 02:08:26;;;;;;;13.53;2.50;;;;;6.70;101886.00;;;;4996768;28;20276;-70
2022/01/30 02:11:17;;;;;;;14.67;3.30;;;;;6.60;101898.00;;;;4999406;28;20222;-66
2022/01/30 02:14:31;;;;;;;21.27;2.67;;;;;6.50;101908.00;;;;4997809;28;20238;-67
2022/01/30 02:26:36;;;;;;;17.90;2.70;;;;;6.20;101897.00;;;;5002178;28;20243;-70
2022/01/30 02:29:22;;;;;;;22.70;3.50;;;;;6.20;101892.00;;;;5004573;28;20277;-69
2022/01/30 02:32:08;;;;;;;16.30;2.90;;;;;5.90;101903.00;;;;5005017;28;20293;-71
2022/01/30 02:34:55;;;;;;;15.13;2.80;;;;;6.00;101913.00;;;;5003819;28;20962;-71
2022/01/30 02:37:41;;;;;;;12.77;2.93;;;;;5.80;101919.00;;;;5000186;28;20594;-70
2022/01/30 02:40:31;;;;;;;14.13;2.37;;;;;5.60;101921.00;;;;5005212;28;20258;-70
2022/01/30 02:43:21;;;;;;;16.27;2.43;;;;;5.50;101924.00;;;;5006955;28;20732;-70
2022/01/30 02:46:19;;;;;;;13.33;2.73;;;;;5.50;101924.00;;;;5001828;28;20249;-73
2022/01/30 02:49:25;;;;;;;13.20;2.57;;;;;5.40;101922.00;;;;4997454;28;20230;-74
2022/01/30 02:52:12;;;;;;;14.67;2.57;;;;;5.40;101884.00;;;;5002182;28;20353;-71
2022/01/30 02:54:59;;;;;;;10.17;2.30;;;;;5.40;101922.00;;;;4994609;28;20226;-71
2022/01/30 02:57:46;;;;;;;11.97;2.43;;;;;5.50;101924.00;;;;5006898;28;20230;-71
2022/01/30 03:00:33;;;;;;;16.10;2.37;;;;;5.40;101929.00;;;;5007286;28;20304;-73
2022/01/30 03:03:19;;;;;;;19.43;3.03;;;;;5.20;101920.00;;;;5004347;28;20237;-70
2022/01/30 03:06:06;;;;;;;12.37;2.77;;;;;5.20;101923.00;;;;5006061;28;20229;-70
2022/01/30 03:08:53;;;;;;;17.13;3.00;;;;;5.30;101909.00;;;;5001539;28;20258;-71
2022/01/30 03:11:40;;;;;;;13.33;2.70;;;;;5.50;101906.00;;;;5006397;28;20233;-70
2022/01/30 03:14:27;;;;;;;12.33;2.60;;;;;5.40;101911.00;;;;5005242;28;20237;-73
2022/01/30 03:17:13;;;;;;;18.00;2.63;;;;;5.30;101908.00;;;;4999738;28;20234;-72
2022/01/30 03:19:59;;;;;;;10.23;3.13;;;;;5.20;101928.00;;;;4994519;28;20686;-71
2022/01/30 03:22:46;;;;;;;17.67;2.47;;;;;5.30;101917.00;;;;4995631;28;20377;-74
2022/01/30 03:25:33;;;;;;;12.83;2.70;;;;;5.40;101930.00;;;;4997297;28;20273;-73
2022/01/30 03:28:19;;;;;;;14.97;3.30;;;;;5.40;101922.00;;;;4996829;28;20230;-72
2022/01/30 03:31:10;;;;;;;15.43;2.57;;;;;5.30;101922.00;;;;4997482;28;20223;-70
2022/01/30 03:33:56;;;;;;;21.37;2.80;;;;;5.40;101931.00;;;;4993897;28;20246;-70
2022/01/30 03:36:42;;;;;;;14.23;2.90;;;;;5.60;101921.00;;;;4986055;28;20229;-70
2022/01/30 03:39:28;;;;;;;10.80;1.90;;;;;5.30;101922.00;;;;4999031;28;20234;-72
2022/01/30 03:42:14;;;;;;;14.73;2.70;;;;;5.20;101922.00;;;;5006235;28;20234;-71
2022/01/30 03:45:01;;;;;;;23.20;2.90;;;;;5.40;101930.00;;;;4993969;28;20229;-70
2022/01/30 03:47:51;;;;;;;13.30;2.50;;;;;5.30;101884.00;;;;4998655;28;20292;-72
2022/01/30 03:50:37;;;;;;;13.00;2.77;;;;;5.10;101929.00;;;;5003828;28;20241;-73
2022/01/30 03:53:23;;;;;;;8.00;1.83;;;;;5.10;101934.00;;;;5005172;28;20240;-72
2022/01/30 03:56:10;;;;;;;17.67;2.70;;;;;5.10;101935.00;;;;5002129;28;20305;-73
2022/01/30 03:58:57;;;;;;;19.47;2.67;;;;;5.20;101930.00;;;;4999680;28;20232;-72
2022/01/30 04:01:43;;;;;;;14.90;2.67;;;;;5.30;101931.00;;;;5005594;28;20229;-71
2022/01/30 04:04:32;;;;;;;8.83;2.17;;;;;5.30;101933.00;;;;5005444;28;20353;-72
2022/01/30 04:07:20;;;;;;;15.27;2.60;;;;;5.40;101922.00;;;;4998284;28;20246;-72
2022/01/30 04:10:08;;;;;;;14.80;2.33;;;;;5.30;101937.00;;;;4998251;28;20373;-72
2022/01/30 04:12:55;;;;;;;14.90;2.40;;;;;5.40;101934.00;;;;4996535;28;20306;-71
2022/01/30 04:15:41;;;;;;;10.07;2.63;;;;;5.60;101933.00;;;;5004321;28;20277;-72
2022/01/30 04:18:28;;;;;;;9.93;2.43;;;;;5.20;101944.00;;;;4997549;28;20305;-69
2022/01/30 04:21:16;;;;;;;10.50;1.90;;;;;5.20;101945.00;;;;5003170;28;20858;-70
2022/01/30 04:24:02;;;;;;;17.67;2.20;;;;;5.30;101959.00;;;;5000189;28;20460;-71
2022/01/30 04:26:48;;;;;;;11.13;2.30;;;;;5.10;101954.00;;;;5005663;28;20312;-71
2022/01/30 04:29:36;;;;;;;12.60;2.70;;;;;5.10;101974.00;;;;5006884;28;20228;-71
2022/01/30 04:32:25;;;;;;;13.33;2.10;;;;;5.50;101957.00;;;;4996307;28;20239;-72
2022/01/30 04:35:17;;;;;;;17.80;2.40;;;;;5.40;101968.00;;;;5002405;28;20320;-72
2022/01/30 04:38:15;;;;;;;10.03;2.30;;;;;5.30;101968.00;;;;5000787;28;20283;-71
2022/01/30 04:41:28;;;;;;;18.90;3.07;;;;;5.50;101965.00;;;;5000218;28;20241;-69
2022/01/30 04:53:41;;;;;;;11.10;2.40;;;;;5.60;101981.00;;;;5005057;28;20249;-69
2022/01/30 04:59:51;;;;;;;8.50;1.77;;;;;5.80;101993.00;;;;4944027;28;20232;-70
2022/01/30 05:02:50;;;;;;;11.10;1.83;;;;;5.80;101997.00;;;;4998361;28;20293;-71
2022/01/30 05:05:47;;;;;;;17.77;2.47;;;;;5.90;101997.00;;;;5002481;28;20234;-70
2022/01/30 05:08:34;;;;;;;14.80;2.27;;;;;5.90;101987.00;;;;5004487;28;20238;-70
2022/01/30 05:11:22;;;;;;;9.53;1.73;;;;;5.80;101977.00;;;;5000061;28;20318;-73
2022/01/30 05:14:09;;;;;;;8.40;1.93;;;;;5.80;101988.00;;;;4989692;28;20613;-72
2022/01/30 05:16:56;;;;;;;10.80;1.90;;;;;5.80;101993.00;;;;5001865;28;20241;-71
2022/01/30 05:19:42;;;;;;;9.60;1.60;;;;;5.80;101990.00;;;;5001589;28;20860;-71
2022/01/30 05:22:29;;;;;;;12.20;2.43;;;;;5.80;101995.00;;;;5008175;28;20297;-72
2022/01/30 05:25:16;;;;;;;9.87;2.47;;;;;5.90;101998.00;;;;5005536;28;20277;-72
2022/01/30 05:28:06;;;;;;;9.80;1.80;;;;;5.90;102006.00;;;;5003144;28;20605;-71
2022/01/30 05:30:52;;;;;;;8.60;2.20;;;;;6.00;101997.00;;;;5008786;28;20705;-70
2022/01/30 05:33:39;;;;;;;15.83;3.07;;;;;6.00;102005.00;;;;5005522;28;20312;-74
2022/01/30 05:36:25;;;;;;;10.87;1.73;;;;;6.10;101999.00;;;;5007166;28;20384;-75
2022/01/30 05:39:12;;;;;;;12.57;2.10;;;;;6.00;102002.00;;;;5005158;28;20245;-71
2022/01/30 05:41:59;;;;;;;8.30;1.70;;;;;5.90;102000.00;;;;5002737;28;20901;-71
2022/01/30 05:44:56;;;;;;;12.23;2.00;;;;;5.90;102001.00;;;;4998362;28;20662;-73
2022/01/30 05:47:47;;;;;;;17.17;2.37;;;;;6.00;102013.00;;;;5001816;28;20309;-72
2022/01/30 05:50:34;;;;;;;6.97;1.50;;;;;6.20;102031.00;;;;4994747;28;20597;-73
2022/01/30 05:53:20;;;;;;;7.13;1.77;;;;;6.20;102034.00;;;;4989500;28;20242;-73
2022/01/30 05:56:11;;;;;;;9.07;2.03;;;;;6.10;102038.00;;;;5008016;28;20772;-72
2022/01/30 05:58:57;;;;;;;7.17;1.50;;;;;6.10;102042.00;;;;4999071;28;20252;-72
2022/01/30 06:01:45;;;;;;;11.77;2.00;;;;;6.00;102047.00;;;;5007891;28;20230;-68
2022/01/30 06:04:31;;;;;;;10.87;2.27;;;;;6.10;102040.00;;;;5006039;28;20262;-73
2022/01/30 06:07:26;;;;;;;10.33;2.13;;;;;6.00;102040.00;;;;5004209;28;20245;-72
2022/01/30 06:10:12;;;;;;;13.27;1.93;;;;;6.00;102043.00;;;;5004103;28;20401;-71
2022/01/30 06:12:58;;;;;;;15.33;2.00;;;;;6.00;102041.00;;;;5002087;28;20875;-71
2022/01/30 06:15:45;;;;;;;10.50;2.33;;;;;6.00;102052.00;;;;4994035;28;20635;-70
2022/01/30 06:18:36;;;;;;;9.10;1.77;;;;;5.90;102053.00;;;;5003596;28;20296;-69
2022/01/30 06:21:22;;;;;;;9.70;2.10;;;;;5.80;102060.00;;;;5006984;28;20238;-72
2022/01/30 06:24:08;;;;;;;8.57;2.23;;;;;5.80;102063.00;;;;4992482;28;20661;-70
2022/01/30 06:26:55;;;;;;;11.23;1.67;;;;;5.60;102061.00;;;;5001413;28;20680;-70
2022/01/30 06:29:41;;;;;;;8.13;1.73;;;;;5.50;102053.00;;;;5000519;28;20349;-71
2022/01/30 06:32:27;;;;;;;5.23;1.67;;;;;5.50;102058.00;;;;5000978;28;20231;-70
2022/01/30 06:35:14;;;;;;;11.03;2.07;;;;;5.40;102056.00;;;;4997902;28;20293;-72
2022/01/30 06:38:02;;;;;;;12.33;2.67;;;;;5.30;102058.00;;;;5002195;28;20230;-69
2022/01/30 06:40:48;;;;;;;7.47;1.97;;;;;5.20;102065.00;;;;4996405;28;20586;-71
2022/01/30 06:43:35;;;;;;;8.50;1.50;;;;;5.00;102068.00;;;;5000250;28;21107;-70
2022/01/30 06:46:21;;;;;;;9.00;2.13;;;;;5.10;102074.00;;;;5007260;28;20257;-72
2022/01/30 06:49:08;;;;;;;9.70;2.33;;;;;5.00;102080.00;;;;4996682;28;20222;-71
2022/01/30 06:51:55;;;;;;;13.30;2.10;;;;;4.90;102068.00;;;;4997439;28;20225;-72
2022/01/30 06:54:41;;;;;;;12.13;2.43;;;;;5.00;102082.00;;;;4996812;28;20308;-71
2022/01/30 06:57:28;;;;;;;9.57;2.20;;;;;4.80;102087.00;;;;5003605;28;20308;-72
2022/01/30 07:00:15;;;;;;;10.93;2.20;;;;;4.80;102083.00;;;;5002998;28;20233;-72
2022/01/30 07:03:01;;;;;;;9.63;1.90;;;;;4.70;102070.00;;;;5001400;28;20269;-71
2022/01/30 07:05:47;;;;;;;13.47;2.27;;;;;4.80;102098.00;;;;4999796;28;20241;-71
2022/01/30 07:08:35;;;;;;;8.23;2.07;;;;;4.70;102101.00;;;;4999772;28;20305;-72
2022/01/30 07:11:21;;;;;;;9.70;1.90;;;;;4.70;102110.00;;;;5006308;28;20246;-73
2022/01/30 07:14:08;;;;;;;7.13;2.17;;;;;4.70;102128.00;;;;5007038;28;20342;-72
2022/01/30 07:16:54;;;;;;;15.93;2.63;;;;;4.80;102137.00;;;;4997936;28;20308;-72
2022/01/30 07:19:40;;;;;;;11.73;2.63;;;;;4.80;102141.00;;;;5006461;28;20230;-72
2022/01/30 07:22:28;;;;;;;10.53;2.50;;;;;4.80;102155.00;;;;5005955;28;20229;-72
2022/01/30 07:25:15;;;;;;;10.30;2.20;;;;;4.80;102141.00;;;;4992729;28;20241;-72
2022/01/30 07:28:01;;;;;;;12.00;2.27;;;;;4.70;102155.00;;;;5000332;28;20230;-72
2022/01/30 07:30:48;;;;;;;14.93;2.53;;;;;4.80;102152.00;;;;5004821;28;20225;-73
2022/01/30 07:33:35;;;;;;;10.70;2.13;;;;;4.70;102158.00;;;;5003162;28;20253;-70
2022/01/30 07:36:21;;;;;;;14.73;2.37;;;;;4.60;102168.00;;;;4999430;28;20316;-72
2022/01/30 07:39:09;;;;;;;7.70;1.77;;;;;4.60;102164.00;;;;4992385;28;20226;-72
2022/01/30 07:41:57;;;;;;;11.47;2.77;;;;;4.60;102169.00;;;;4990030;28;20995;-71
2022/01/30 07:44:44;;;;;;;8.97;2.23;;;;;4.60;102161.00;;;;4999436;28;20320;-72
2022/01/30 07:47:34;;;;;;;19.10;2.20;;;;;4.70;102168.00;;;;4996070;28;20372;-70
2022/01/30 07:50:21;;;;;;;15.13;2.30;;;;;4.90;102165.00;;;;4997847;28;20233;-71
2022/01/30 07:53:07;;;;;;;19.43;3.03;;;;;4.90;102166.00;;;;4981426;28;20225;-71
2022/01/30 07:55:54;;;;;;;12.00;2.67;;;;;5.00;102189.00;;;;4998689;28;20738;-70
2022/01/30 07:58:41;;;;;;;18.50;3.10;;;;;5.00;102187.00;;;;5005215;28;20372;-71
2022/01/30 08:01:28;;;;;;;11.97;2.27;;;;;4.80;102184.00;;;;4988918;28;20298;-72
2022/01/30 08:04:14;;;;;;;9.23;2.13;;;;;4.70;102191.00;;;;5002314;28;20241;-72
2022/01/30 08:07:01;;;;;;;11.47;2.40;;;;;4.70;102191.00;;;;4994070;28;20246;-75
2022/01/30 08:09:48;;;;;;;16.37;2.73;;;;;4.70;102199.00;;;;4996862;28;20368;-68
2022/01/30 08:12:35;;;;;;;10.97;2.70;;;;;4.80;102191.00;;;;4999127;28;20234;-71
2022/01/30 08:15:23;;;;;;;9.00;2.87;;;;;5.00;102196.00;;;;5000900;28;20744;-72
2022/01/30 08:18:09;;;;;;;10.90;2.30;;;;;5.10;102191.00;;;;4995852;28;20725;-71
2022/01/30 08:20:56;;;;;;;12.87;2.20;;;;;5.20;102191.00;;;;5000056;28;20305;-72
2022/01/30 08:23:43;;;;;;;11.47;2.40;;;;;5.30;102202.00;;;;5000396;28;20230;-75
2022/01/30 08:26:29;;;;;;;19.47;3.07;;;;;5.40;102198.00;;;;5001749;28;20245;-72
2022/01/30 08:29:21;;;;;;;15.00;2.47;;;;;5.60;102199.00;;;;5001853;28;20237;-72
2022/01/30 08:32:11;;;;;;;21.97;3.07;;;;;5.60;102205.00;;;;4997996;28;20710;-70
2022/01/30 08:34:57;;;;;;;9.50;2.23;;;;;5.60;102203.00;;;;4999203;28;20285;-72
2022/01/30 08:37:44;;;;;;;18.13;2.97;;;;;5.60;102200.00;;;;4993957;28;20229;-73
2022/01/30 08:40:30;;;;;;;17.73;3.10;;;;;5.80;102201.00;;;;5004978;28;20966;-70
2022/01/30 08:43:17;;;;;;;16.73;2.57;;;;;5.80;102200.00;;;;4993336;28;20896;-72
2022/01/30 08:46:04;;;;;;;17.57;2.70;;;;;6.00;102195.00;;;;5001373;28;20250;-71
2022/01/30 08:48:52;;;;;;;14.90;2.83;;;;;6.10;102189.00;;;;4996943;28;20593;-71
2022/01/30 08:51:38;;;;;;;15.00;2.57;;;;;6.20;102188.00;;;;5003787;28;20721;-71
2022/01/30 08:54:24;;;;;;;15.97;2.77;;;;;6.30;102184.00;;;;5001122;28;20241;-72
2022/01/30 08:57:11;;;;;;;14.37;2.80;;;;;6.40;102178.00;;;;5001598;28;20740;-71
2022/01/30 09:00:00;;;;;;;18.33;3.27;;;;;6.30;102181.00;;;;4993919;28;20900;-72
2022/01/30 09:02:46;;;;;;;18.97;2.77;;;;;6.50;102180.00;;;;4994774;28;20234;-68
2022/01/30 09:05:35;;;;;;;9.60;2.60;;;;;6.50;102181.00;;;;4994712;28;20322;-70
2022/01/30 09:08:22;;;;;;;14.63;3.00;;;;;6.40;102186.00;;;;4997884;28;20234;-70
2022/01/30 09:11:08;;;;;;;11.47;2.40;;;;;6.50;102176.00;;;;4994442;28;20860;-73
2022/01/30 09:13:55;;;;;;;14.70;3.00;;;;;6.70;102184.00;;;;4993035;28;20301;-75
2022/01/30 09:16:41;;;;;;;19.03;3.10;;;;;6.60;102175.00;;;;5006289;28;20234;-73
2022/01/30 09:19:48;;;;;;;15.73;2.90;;;;;6.50;102167.00;;;;4998557;28;20885;-71
2022/01/30 09:22:36;;;;;;;20.50;3.17;;;;;6.50;102152.00;;;;5006259;28;20234;-71
2022/01/30 09:25:22;;;;;;;18.60;2.67;;;;;6.50;102171.00;;;;4999031;28;20358;-72
2022/01/30 09:28:09;;;;;;;23.67;3.87;;;;;6.50;102176.00;;;;5001258;28;20272;-72
2022/01/30 09:30:55;;;;;;;14.07;3.07;;;;;6.70;102169.00;;;;4997037;28;20863;-71
2022/01/30 09:33:42;;;;;;;18.73;3.03;;;;;6.70;102168.00;;;;4992573;28;20737;-70
2022/01/30 09:36:28;;;;;;;16.03;3.20;;;;;6.80;102178.00;;;;4994823;28;20222;-72
2022/01/30 09:39:16;;;;;;;15.43;3.27;;;;;6.90;102164.00;;;;4993366;28;20234;-69
2022/01/30 09:42:03;;;;;;;17.20;2.90;;;;;6.90;102177.00;;;;5004398;28;20328;-74
2022/01/30 09:44:50;;;;;;;22.77;3.20;;;;;7.00;102179.00;;;;4999262;28;20312;-72
2022/01/30 09:47:37;;;;;;;26.93;3.00;;;;;7.20;102187.00;;;;4995738;28;20242;-70
2022/01/30 09:50:23;;;;;;;11.03;2.47;;;;;7.10;102181.00;;;;5006272;28;20238;-71
2022/01/30 09:53:10;;;;;;;16.00;3.20;;;;;7.00;102181.00;;;;4993668;28;20808;-71
2022/01/30 09:55:58;;;;;;;18.60;3.10;;;;;7.00;102193.00;;;;4998124;28;20797;-71
2022/01/30 09:58:44;;;;;;;22.37;3.23;;;;;6.90;102204.00;;;;4999141;28;20225;-72
2022/01/30 10:01:33;;;;;;;18.30;2.73;;;;;7.10;102192.00;;;;5002646;28;20226;-72
2022/01/30 10:04:20;;;;;;;19.07;2.97;;;;;7.30;102211.00;;;;5000044;28;20297;-70
2022/01/30 10:07:08;;;;;;;13.17;3.70;;;;;7.50;102212.00;;;;5002142;28;20240;-72
2022/01/30 10:10:08;;;;;;;28.83;4.23;;;;;7.30;102217.00;;;;5001809;28;20273;-72
2022/01/30 10:13:07;;;;;;;16.63;3.40;;;;;7.50;102208.00;;;;5001891;28;20266;-71
2022/01/30 10:15:56;;;;;;;13.97;3.00;;;;;7.40;102199.00;;;;5002159;28;20315;-73
2022/01/30 10:18:44;;;;;;;26.23;3.77;;;;;7.60;102209.00;;;;4996470;28;20225;-72
2022/01/30 10:21:32;;;;;;;22.23;3.67;;;;;7.70;102218.00;;;;4998921;28;20230;-70
2022/01/30 10:24:20;;;;;;;23.03;3.20;;;;;7.70;102216.00;;;;5004737;28;20292;-72
2022/01/30 10:27:20;;;;;;;20.80;4.03;;;;;7.60;102183.00;;;;4996551;28;20362;-72
2022/01/30 10:30:09;;;;;;;19.57;3.37;;;;;7.60;102212.00;;;;4988606;28;20730;-70
2022/01/30 10:32:56;;;;;;;19.00;2.90;;;;;7.70;102237.00;;;;4996315;28;20369;-69
2022/01/30 10:35:53;;;;;;;15.60;3.70;;;;;7.70;102242.00;;;;4991931;28;20238;-68
2022/01/30 10:38:41;;;;;;;19.43;3.83;;;;;7.80;102246.00;;;;4997893;28;20362;-71
2022/01/30 10:41:36;;;;;;;23.87;4.13;;;;;7.80;102229.00;;;;4997497;28;20286;-71
2022/01/30 10:44:22;;;;;;;21.40;3.83;;;;;7.90;102236.00;;;;4999187;28;20631;-72
2022/01/30 10:47:10;;;;;;;25.13;3.57;;;;;7.70;102230.00;;;;5002496;28;20245;-71
2022/01/30 10:49:57;;;;;;;27.10;3.70;;;;;7.80;102229.00;;;;4994872;28;20628;-70
2022/01/30 10:52:55;;;;;;;23.73;3.47;;;;;7.80;102219.00;;;;4992982;28;20230;-71
2022/01/30 10:55:44;;;;;;;21.13;3.90;;;;;8.00;102231.00;;;;4995589;28;20249;-73
2022/01/30 10:58:31;;;;;;;20.33;3.53;;;;;8.10;102234.00;;;;4993733;28;20811;-70
2022/01/30 11:01:23;;;;;;;23.83;3.70;;;;;8.10;102236.00;;;;4994066;28;20234;-68
2022/01/30 11:04:22;;;;;;;19.63;3.53;;;;;8.10;102243.00;;;;4992501;28;20239;-73
2022/01/30 11:07:09;;;;;;;28.23;3.70;;;;;8.20;102242.00;;;;4997642;28;20351;-72
2022/01/30 11:09:59;;;;;;;24.53;3.87;;;;;8.30;102247.00;;;;4999938;28;20234;-72
2022/01/30 11:12:56;;;;;;;26.23;3.90;;;;;8.40;102247.00;;;;4997417;28;20238;-71
2022/01/30 11:15:44;;;;;;;22.47;3.83;;;;;8.10;102243.00;;;;4984534;28;21097;-73
2022/01/30 11:18:30;;;;;;;24.20;4.10;;;;;7.90;102236.00;;;;4992897;28;21123;-70
2022/01/30 11:21:21;;;;;;;19.40;3.37;;;;;7.80;102247.00;;;;5000417;28;20246;-72
2022/01/30 11:24:09;;;;;;;24.43;3.77;;;;;7.80;102253.00;;;;4994832;28;20233;-71
2022/01/30 11:26:56;;;;;;;27.40;4.03;;;;;7.90;102263.00;;;;4998418;28;20589;-69
2022/01/30 11:29:42;;;;;;;17.83;3.83;;;;;7.90;102240.00;;;;5000149;28;20221;-71
2022/01/30 11:32:29;;;;;;;22.73;3.37;;;;;8.00;102238.00;;;;4999922;28;20301;-71
2022/01/30 11:35:16;;;;;;;26.13;4.43;;;;;8.10;102253.00;;;;4997068;28;20819;-72
2022/01/30 11:38:04;;;;;;;18.33;3.40;;;;;8.10;102238.00;;;;5001754;28;20249;-70
2022/01/30 11:41:09;;;;;;;23.40;4.27;;;;;8.30;102230.00;;;;5002819;28;20357;-71
2022/01/30 11:44:25;;;;;;;26.13;4.13;;;;;8.50;102218.00;;;;4995190;28;20320;-71
2022/01/30 11:47:23;;;;;;;22.27;4.50;;;;;8.70;102212.00;;;;4989952;28;20236;-68
2022/01/30 11:50:10;;;;;;;20.73;3.77;;;;;8.80;102206.00;;;;4999503;28;20237;-70
2022/01/30 11:52:59;;;;;;;17.53;3.67;;;;;8.60;102212.00;;;;5003159;28;20728;-70
2022/01/30 11:55:54;;;;;;;25.50;4.50;;;;;8.60;102207.00;;;;5001709;28;20234;-70
2022/01/30 11:58:49;;;;;;;21.00;4.33;;;;;8.40;102168.00;;;;5003816;28;21095;-71
2022/01/30 12:01:36;;;;;;;22.67;4.03;;;;;8.40;102200.00;;;;4996998;28;20230;-70
2022/01/30 12:04:25;;;;;;;24.67;3.70;;;;;8.50;102183.00;;;;5003670;28;20256;-72
2022/01/30 12:07:32;;;;;;;17.47;3.80;;;;;8.60;102223.00;;;;5001105;28;20292;-73
2022/01/30 12:10:34;;;;;;;25.10;4.03;;;;;8.50;102187.00;;;;5000674;28;20744;-71
2022/01/30 12:13:43;;;;;;;20.80;4.13;;;;;8.30;102199.00;;;;4993472;28;20242;-73
2022/01/30 12:16:43;;;;;;;24.80;4.27;;;;;8.20;102191.00;;;;4998356;28;20922;-72
2022/01/30 12:20:05;;;;;;;21.90;4.03;;;;;8.30;102196.00;;;;5003537;28;20801;-73
2022/01/30 12:22:54;;;;;;;20.23;4.13;;;;;8.10;102200.00;;;;4994741;28;20365;-72
2022/01/30 12:25:40;;;;;;;21.70;3.97;;;;;8.20;102182.00;;;;5003430;28;20238;-68
2022/01/30 12:28:42;;;;;;;26.83;5.80;;;;;8.30;102191.00;;;;5002244;28;21321;-72
2022/01/30 12:31:30;;;;;;;19.63;4.43;;;;;8.40;102196.00;;;;4999019;28;20233;-71
2022/01/30 12:34:17;;;;;;;20.43;4.13;;;;;8.60;102184.00;;;;5007313;28;20731;-72
2022/01/30 12:37:04;;;;;;;17.77;4.10;;;;;8.90;102185.00;;;;4991013;28;20250;-71
2022/01/30 12:39:50;;;;;;;21.50;3.63;;;;;9.00;102186.00;;;;4998811;28;20292;-68
2022/01/30 12:42:36;;;;;;;23.20;3.70;;;;;8.90;102187.00;;;;4995594;28;20578;-68
2022/01/30 12:45:24;;;;;;;18.87;4.47;;;;;8.80;102192.00;;;;5002385;28;20241;-71
2022/01/30 12:48:10;;;;;;;25.43;4.13;;;;;8.80;102191.00;;;;5000654;28;20246;-71
2022/01/30 12:51:02;;;;;;;23.30;4.17;;;;;8.60;102190.00;;;;5003762;28;20225;-71
2022/01/30 12:53:48;;;;;;;27.27;5.00;;;;;8.60;102204.00;;;;5005328;28;20222;-72
2022/01/30 12:56:36;;;;;;;26.53;4.20;;;;;8.80;102209.00;;;;5007095;28;20258;-69
2022/01/30 12:59:24;;;;;;;22.83;3.73;;;;;8.90;102202.00;;;;5004057;28;20711;-71
2022/01/30 13:02:12;;;;;;;19.33;4.17;;;;;8.70;102204.00;;;;5006937;28;20266;-74
2022/01/30 13:04:59;;;;;;;21.20;3.87;;;;;8.60;102194.00;;;;4997021;28;20248;-70
2022/01/30 13:07:53;;;;;;;20.40;4.50;;;;;8.60;102191.00;;;;5000766;28;20242;-73
2022/01/30 13:10:39;;;;;;;32.97;4.20;;;;;8.60;102182.00;;;;5006226;28;20246;-73
2022/01/30 13:13:26;;;;;;;20.80;4.20;;;;;8.50;102186.00;;;;5004325;28;20234;-72
2022/01/30 13:16:14;;;;;;;33.77;4.50;;;;;8.40;102187.00;;;;4998117;28;20868;-72
2022/01/30 13:19:05;;;;;;;24.07;4.23;;;;;8.40;102191.00;;;;5000665;28;20233;-68
2022/01/30 13:21:51;;;;;;;21.53;3.90;;;;;8.20;102185.00;;;;5002623;28;20397;-70
2022/01/30 13:24:39;;;;;;;23.47;3.73;;;;;8.20;102172.00;;;;5006194;28;20283;-71
2022/01/30 13:27:25;;;;;;;19.20;3.93;;;;;8.20;102186.00;;;;5004248;28;20366;-69
2022/01/30 13:30:18;;;;;;;24.50;3.83;;;;;8.20;102180.00;;;;5004661;28;20237;-71
2022/01/30 13:33:06;;;;;;;16.20;3.77;;;;;8.30;102182.00;;;;5003395;28;20258;-71
2022/01/30 13:35:53;;;;;;;21.50;3.30;;;;;8.40;102184.00;;;;5004614;28;20268;-70
2022/01/30 13:38:44;;;;;;;26.13;3.90;;;;;8.50;102178.00;;;;5005053;28;20697;-70
2022/01/30 13:41:33;;;;;;;15.90;3.20;;;;;8.60;102174.00;;;;5004253;28;20293;-73
2022/01/30 13:44:25;;;;;;;22.67;3.80;;;;;8.50;102180.00;;;;4997654;28;20303;-72
2022/01/30 13:47:19;;;;;;;24.50;3.70;;;;;8.70;102175.00;;;;4995499;28;20238;-72
2022/01/30 13:50:15;;;;;;;23.17;5.53;;;;;8.80;102178.00;;;;4996816;28;20292;-71
2022/01/30 13:53:05;;;;;;;20.33;3.47;;;;;8.70;102179.00;;;;5000115;28;20370;-70
2022/01/30 13:55:55;;;;;;;19.30;3.57;;;;;8.60;102181.00;;;;4996193;28;20682;-72
2022/01/30 13:58:47;;;;;;;20.90;3.80;;;;;8.50;102179.00;;;;5004767;28;20724;-70
2022/01/30 14:01:33;;;;;;;17.33;3.40;;;;;8.50;102185.00;;;;5000234;28;20234;-70
2022/01/30 14:04:23;;;;;;;20.27;3.43;;;;;8.50;102179.00;;;;5006334;28;20266;-71
2022/01/30 14:07:21;;;;;;;17.00;3.30;;;;;8.40;102190.00;;;;5005459;28;20246;-70
2022/01/30 14:10:09;;;;;;;19.03;3.23;;;;;8.30;102171.00;;;;4997263;28;20234;-70
2022/01/30 14:13:01;;;;;;;28.60;3.70;;;;;8.40;102158.00;;;;5001605;28;20808;-70
2022/01/30 14:16:00;;;;;;;21.90;4.07;;;;;8.30;102156.00;;;;4996565;28;20307;-71
2022/01/30 14:18:53;;;;;;;18.70;3.63;;;;;8.40;102159.00;;;;4993454;28;20788;-70
2022/01/30 14:21:39;;;;;;;15.57;3.10;;;;;8.30;102152.00;;;;5004936;28;20241;-71
2022/01/30 14:24:28;;;;;;;30.77;4.43;;;;;8.30;102142.00;;;;5004961;28;20246;-73
2022/01/30 14:27:16;;;;;;;13.83;2.93;;;;;8.30;102141.00;;;;4998623;28;20259;-71